Data for 09/26/2008

Time Sea-Level Adjusted Pressure Absolute Pressure Temperature Relative Humidity Dew Point   
(mb) (inHg) (mb) (inHg) (C) (F) (%) (C) (F)
00:05 1020 30.12 849 25.07 14 57.3 34 -1.5 29.2
00:10 1020 30.12 849 25.07 13.8 56.8 35 -1.4 29.5
00:15 1020 30.12 849 25.07 13.7 56.7 36 -1.1 30
00:20 1020 30.12 849 25.07 13.4 56.1 37 -1 30.2
00:25 1020 30.12 849 25.07 13.2 55.8 38 -0.8 30.5
00:30 1020 30.12 849 25.07 13 55.3 39 -0.7 30.8
00:35 1020 30.12 849 25.07 12 53.5 43 -0.2 31.7
00:40 1020 30.12 849 25.07 11.3 52.3 43 -0.8 30.6
00:45 1020 30.12 849 25.07 11.2 52.2 43 -0.8 30.5
00:50 1020 30.12 850 25.1 11.2 52.1 43 -0.9 30.4
00:55 1020 30.12 850 25.1 11.7 53 41 -1 30.2
01:00 1020 30.12 850 25.1 12.3 54.1 40 -1 30.2
01:05 1020 30.12 850 25.1 12.6 54.6 39 -1 30.2
01:10 1021 30.15 850 25.1 12.6 54.6 39 -0.8 30.5
01:15 1021 30.15 850 25.1 12.6 54.7 39 -1 30.2
01:20 1021 30.15 850 25.1 12.8 55 40 -0.4 31.2
01:25 1021 30.15 850 25.1 12.7 54.9 40 -0.6 30.8
01:30 1021 30.15 850 25.1 12.7 54.8 40 -0.5 31.1
01:35 1021 30.15 850 25.1 12.6 54.6 41 -0.3 31.5
01:40 1021 30.15 850 25.1 12.3 54.1 42 -0.2 31.7
01:45 1021 30.15 850 25.1 11.9 53.4 43 -0.2 31.7
01:50 1021 30.15 850 25.1 11.9 53.3 45 0.3 32.6
01:55 1021 30.15 850 25.1 11 51.7 47 0.1 32.1
02:00 1021 30.15 850 25.1 10.9 51.7 46 -0.1 31.9
02:05 1021 30.15 850 25.1 10.8 51.4 47 -0.1 31.9
02:10 1021 30.15 850 25.1 10.8 51.5 47 0.2 32.3
02:15 1021 30.15 850 25.1 10.8 51.5 47 -0.1 31.8
02:20 1021 30.15 850 25.1 11 51.9 45 -0.3 31.4
02:25 1021 30.15 850 25.1 11.4 52.5 45 0 32.1
02:30 1021 30.15 850 25.1 11 51.8 46 -0 31.9
02:35 1021 30.15 850 25.1 11.1 52 45 -0.3 31.5
02:40 1021 30.15 850 25.1 11.4 52.5 44 -0.2 31.6
02:45 1021 30.15 850 25.1 11 51.8 48 0.6 33
02:50 1021 30.15 850 25.1 10.6 51 49 0.3 32.6
02:55 1021 30.15 850 25.1 10.3 50.6 50 0.4 32.8
03:00 1021 30.15 850 25.1 9.8 49.7 51 0.3 32.5
03:05 1021 30.15 850 25.1 9.4 48.9 53 0.4 32.7
03:10 1021 30.15 850 25.1 9 48.2 54 0.3 32.6
03:15 1021 30.15 850 25.1 8.7 47.6 54 -0.1 31.7
03:20 1021 30.15 851 25.13 9 48.2 53 -0 32
03:25 1021 30.15 851 25.13 9 48.2 53 -0.1 31.7
03:30 1021 30.15 851 25.13 9.1 48.3 51 -0.4 31.2
03:35 1021 30.15 851 25.13 9.2 48.6 52 -0.1 31.8
03:40 1021 30.15 851 25.13 8.7 47.6 54 -0.1 31.9
03:45 1021 30.15 851 25.13 8.4 47.1 54 -0.3 31.5
03:50 1022 30.18 851 25.13 8.4 47.1 53 -0.6 31
03:55 1022 30.18 851 25.13 8.3 46.9 54 -0.5 31.1
04:00 1022 30.18 851 25.13 8.2 46.8 53 -0.9 30.4
04:05 1022 30.18 851 25.13 8.6 47.4 52 -0.8 30.5
04:10 1022 30.18 851 25.13 8.9 48 51 -0.7 30.7
04:15 1022 30.18 851 25.13 9.1 48.4 51 -0.4 31.3
04:20 1022 30.18 851 25.13 9 48.1 53 -0.1 31.9
04:25 1022 30.18 851 25.13 8.6 47.5 54 -0 31.9
04:30 1022 30.18 851 25.13 8.5 47.3 54 -0.2 31.7
04:35 1022 30.18 851 25.13 8.4 47.2 55 -0 31.9
04:40 1022 30.18 851 25.13 8.2 46.8 57 0.1 32.2
04:45 1022 30.18 851 25.13 8 46.4 57 0 32
04:50 1022 30.18 851 25.13 8 46.3 57 0.1 32.1
04:55 1022 30.18 851 25.13 7.7 45.9 58 -0 31.9
05:00 1022 30.18 851 25.13 7.8 46 57 -0.1 31.8
05:05 1022 30.18 851 25.13 7.7 45.8 57 -0.1 31.7
05:10 1022 30.18 851 25.13 7.7 45.9 56 -0.5 31.2
05:15 1022 30.18 851 25.13 7.7 45.9 58 -0.1 31.8
05:20 1022 30.18 851 25.13 7.6 45.6 58 -0.2 31.7
05:25 1022 30.18 851 25.13 7.6 45.7 57 -0.3 31.5
05:30 1022 30.18 851 25.13 7.7 45.9 57 -0.3 31.5
05:35 1022 30.18 851 25.13 7.6 45.6 59 0 32.1
05:40 1022 30.18 851 25.13 7.4 45.2 59 -0 31.9
05:45 1022 30.18 851 25.13 7.4 45.3 58 -0.3 31.5
05:50 1022 30.18 852 25.16 7.8 46 57 -0.2 31.6
05:55 1022 30.18 852 25.16 8.1 46.5 56 -0.1 31.8
06:00 1022 30.18 852 25.16 7.8 46 59 0.2 32.4
06:05 1022 30.18 852 25.16 7.4 45.2 59 -0.1 31.9
06:10 1023 30.21 852 25.16 7.3 45.1 59 -0.1 31.8
06:15 1023 30.21 852 25.16 7.2 44.9 60 -0.1 31.8
06:20 1023 30.21 852 25.16 7 44.6 60 -0.2 31.6
06:25 1023 30.21 852 25.16 6.9 44.3 61 -0.2 31.6
06:30 1023 30.21 852 25.16 6.8 44.3 60 -0.3 31.5
06:35 1023 30.21 852 25.16 6.9 44.4 60 -0.3 31.4
06:40 1023 30.21 852 25.16 7 44.6 60 -0.3 31.5
06:45 1023 30.21 852 25.16 7.3 45.1 58 -0.4 31.2
06:50 1023 30.21 852 25.16 7.4 45.3 57 -0.4 31.2
06:55 1023 30.21 852 25.16 7.6 45.7 57 -0.3 31.4
07:00 1023 30.21 852 25.16 7.5 45.6 57 -0.4 31.2
07:05 1023 30.21 852 25.16 7.6 45.7 57 -0.5 31.2
07:10 1023 30.21 852 25.16 7.6 45.7 58 -0.1 31.7
07:15 1023 30.21 852 25.16 7.5 45.5 59 0.1 32.2
07:20 1023 30.21 852 25.16 6.8 44.3 61 -0.1 31.9
07:25 1023 30.21 852 25.16 6.3 43.4 61 -0.7 30.8
07:30 1023 30.21 852 25.16 6.3 43.4 62 -0.4 31.3
07:35 1023 30.21 853 25.19 6 42.8 62 -0.6 30.8
07:40 1023 30.21 853 25.19 5.9 42.6 65 -0.2 31.6
07:45 1024 30.24 853 25.19 5.5 41.8 66 -0.5 31.2
07:50 1024 30.24 853 25.19 5.7 42.2 66 -0.1 31.8
07:55 1024 30.24 853 25.19 5.7 42.3 64 -0.5 31.1
08:00 1024 30.24 853 25.19 6 42.9 64 -0.3 31.4
08:05 1024 30.24 853 25.19 6.1 43 64 -0.2 31.6
08:10 1024 30.24 853 25.19 6.5 43.7 61 -0.5 31.2
08:15 1024 30.24 853 25.19 6.7 44.1 61 -0.2 31.6
08:20 1024 30.24 853 25.19 7.1 44.8 60 -0.2 31.7
08:25 1024 30.24 853 25.19 7.5 45.5 59 0 32.1
08:30 1024 30.24 853 25.19 7.7 45.8 59 0.2 32.4
08:35 1024 30.24 853 25.19 7.8 46 59 0.3 32.5
08:40 1024 30.24 853 25.19 8.1 46.5 58 0.4 32.6
08:45 1024 30.24 853 25.19 8 46.5 59 0.5 32.9
08:50 1024 30.24 853 25.19 8.4 47.1 57 0.4 32.7
08:55 1024 30.24 853 25.19 8.7 47.6 55 0.3 32.5
09:00 1024 30.24 853 25.19 9.1 48.3 54 0.1 32.3
09:05 1024 30.24 853 25.19 9.9 49.8 52 0.5 32.9
09:10 1024 30.24 853 25.19 10.4 50.7 49 0.2 32.3
09:15 1024 30.24 853 25.19 11.3 52.4 48 0.7 33.3
09:20 1024 30.24 853 25.19 11.6 52.9 45 0.3 32.5
09:25 1024 30.24 853 25.19 12 53.6 48 1.4 34.5
09:30 1024 30.24 853 25.19 11.9 53.5 47 0.9 33.7
09:35 1024 30.24 853 25.19 12.4 54.4 44 0.7 33.3
09:40 1024 30.24 853 25.19 12.3 54.1 44 0.6 33
09:45 1024 30.24 853 25.19 12.9 55.2 45 1.2 34.1
09:50 1024 30.24 853 25.19 12.9 55.1 44 1.1 34
09:55 1024 30.24 853 25.19 13.2 55.7 42 0.7 33.3
10:00 1024 30.24 853 25.19 14 57.1 42 1.3 34.3
10:05 1024 30.24 853 25.19 13.9 57 39 0.4 32.7
10:10 1024 30.24 853 25.19 14.3 57.7 39 0.6 33
10:15 1024 30.24 853 25.19 14.8 58.7 38 0.8 33.4
10:20 1024 30.24 853 25.19 14.8 58.7 38 0.8 33.5
10:25 1024 30.24 853 25.19 14.5 58 40 1 33.8
10:30 1024 30.24 853 25.19 14.1 57.3 40 0.9 33.5
10:35 1024 30.24 853 25.19 14.6 58.3 39 0.7 33.3
10:40 1024 30.24 853 25.19 15.3 59.5 38 1 33.8
10:45 1024 30.24 853 25.19 15.6 60.1 37 0.9 33.6
10:50 1024 30.24 853 25.19 15.5 59.8 37 1.1 34
10:55 1024 30.24 853 25.19 15.5 59.9 38 1.3 34.4
11:00 1024 30.24 853 25.19 15.7 60.2 37 1.2 34.1
11:05 1024 30.24 853 25.19 16 60.7 37 1.2 34.2
11:10 1024 30.24 853 25.19 16.1 61 37 1.4 34.5
11:15 1024 30.24 853 25.19 16 60.8 37 1.5 34.7
11:20 1024 30.24 853 25.19 16 60.7 36 1.1 34
11:25 1024 30.24 853 25.19 16.1 60.9 37 1.4 34.6
11:30 1024 30.24 853 25.19 16 60.8 38 1.8 35.2
11:35 1024 30.24 853 25.19 16.2 61.2 35 1 33.8
11:40 1024 30.24 853 25.19 16.7 62.1 36 1.6 34.9
11:45 1024 30.24 853 25.19 16.3 61.3 35 0.9 33.6
11:50 1024 30.24 853 25.19 17.2 63 33 1 33.8
11:55 1024 30.24 853 25.19 17.3 63.1 33 1 33.9
12:00 1024 30.24 853 25.19 17.8 64 33 1.3 34.4
12:05 1024 30.24 853 25.19 18 64.5 30 0.5 33
12:10 1024 30.24 853 25.19 18.1 64.7 31 0.7 33.3
12:15 1024 30.24 853 25.19 17.3 63.1 32 0.5 33
12:20 1024 30.24 853 25.19 17.4 63.2 31 0.4 32.7
12:25 1024 30.24 853 25.19 17.5 63.4 32 0.6 33.1
12:30 1024 30.24 853 25.19 18.2 64.8 30 0.6 33
12:35 1024 30.24 853 25.19 18.4 65.2 30 0.6 33.1
12:40 1024 30.24 853 25.19 17.9 64.3 30 0.2 32.3
12:45 1024 30.24 853 25.19 18.3 64.9 30 0.4 32.7
12:50 1024 30.24 853 25.19 18.5 65.2 31 0.9 33.7
12:55 1023 30.21 853 25.19 18.7 65.6 30 1 33.8
13:00 1023 30.21 853 25.19 19.3 66.8 28 0.7 33.2
13:05 1023 30.21 853 25.19 19.1 66.4 29 0.8 33.5
13:10 1023 30.21 853 25.19 19.1 66.4 28 0.4 32.8
13:15 1023 30.21 852 25.16 19.5 67.1 29 1.1 33.9
13:20 1023 30.21 852 25.16 19.5 67.1 28 0.6 33
13:25 1023 30.21 852 25.16 19.8 67.6 28 1 33.7
13:30 1023 30.21 852 25.16 20.1 68.2 28 1 33.7
13:35 1023 30.21 852 25.16 20 67.9 27 0.5 32.9
13:40 1023 30.21 852 25.16 20.3 68.5 27 0.6 33.1
13:45 1023 30.21 852 25.16 20.1 68.2 26 0.3 32.5
13:50 1023 30.21 852 25.16 20.5 68.8 26 0.3 32.6
13:55 1023 30.21 852 25.16 20.5 69 25 -0.2 31.6
14:00 1023 30.21 852 25.16 20.8 69.4 23 -1.2 29.8
14:05 1023 30.21 852 25.16 20.7 69.3 22 -1.9 28.6
14:10 1023 30.21 852 25.16 20.6 69 23 -1 30.1
14:15 1023 30.21 852 25.16 20.8 69.4 24 -0.3 31.4
14:20 1023 30.21 852 25.16 20.9 69.5 23 -0.9 30.5
14:25 1023 30.21 852 25.16 21.1 70 23 -0.6 30.9
14:30 1023 30.21 852 25.16 21 69.7 23 -1 30.3
14:35 1023 30.21 852 25.16 21.1 70 22 -1.5 29.3
14:40 1022 30.18 852 25.16 21.2 70.1 22 -1.2 29.9
14:45 1022 30.18 852 25.16 21.6 70.8 22 -0.7 30.7
14:50 1022 30.18 852 25.16 21.6 70.9 20 -2.3 27.8
14:55 1022 30.18 852 25.16 22 71.6 19 -2.3 27.8
15:00 1022 30.18 852 25.16 22 71.5 20 -1.9 28.5
15:05 1022 30.18 851 25.13 21.4 70.4 20 -2 28.3
15:10 1022 30.18 851 25.13 22.3 72.1 19 -2.5 27.5
15:15 1022 30.18 851 25.13 22.6 72.6 18 -3.1 26.4
15:20 1022 30.18 851 25.13 21.4 70.5 19 -2.9 26.8
15:25 1022 30.18 851 25.13 22.1 71.7 17 -3.6 25.6
15:30 1022 30.18 851 25.13 22 71.6 19 -2.5 27.6
15:35 1022 30.18 851 25.13 21 69.8 19 -3.7 25.4
15:40 1022 30.18 851 25.13 21.4 70.6 18 -4.1 24.7
15:45 1022 30.18 851 25.13 21.8 71.3 17 -3.8 25.2
15:50 1022 30.18 851 25.13 22.3 72.2 17 -3.5 25.8
15:55 1022 30.18 851 25.13 21.4 70.6 18 -3.3 26
16:00 1022 30.18 851 25.13 22.2 71.9 17 -3.7 25.3
16:05 1022 30.18 851 25.13 22.5 72.4 18 -3.2 26.3
16:10 1022 30.18 851 25.13 22 71.7 17 -4 24.7
16:15 1022 30.18 851 25.13 21.7 71.1 16 -5 23
16:20 1022 30.18 851 25.13 21.5 70.7 17 -4.8 23.4
16:25 1022 30.18 851 25.13 22.3 72.2 16 -4.6 23.6
16:30 1022 30.18 851 25.13 22.6 72.7 17 -3.1 26.4
16:35 1022 30.18 851 25.13 22.7 72.9 16 -4.5 23.8
16:40 1022 30.18 851 25.13 23 73.3 16 -4.4 24.1
16:45 1022 30.18 851 25.13 22.1 71.7 16 -4.4 24
16:50 1022 30.18 851 25.13 22 71.6 15 -5.6 21.9
16:55 1022 30.18 851 25.13 22.9 73.2 15 -5.2 22.7
17:00 1022 30.18 851 25.13 22.4 72.3 15 -5 23
17:05 1022 30.18 851 25.13 22 71.6 17 -4.1 24.6
17:10 1022 30.18 851 25.13 22.5 72.4 15 -5.4 22.4
17:15 1022 30.18 851 25.13 22.8 73 14 -5.8 21.5
17:20 1022 30.18 851 25.13 22.4 72.4 15 -5.4 22.2
17:25 1022 30.18 851 25.13 22.5 72.5 14 -5.7 21.7
17:30 1022 30.18 851 25.13 22.4 72.3 16 -4.8 23.3
17:35 1022 30.18 851 25.13 22.1 71.8 16 -5.1 22.8
17:40 1022 30.18 851 25.13 22.2 71.9 15 -5.6 22
17:45 1022 30.18 851 25.13 21.9 71.4 15 -5.5 22
17:50 1022 30.18 851 25.13 21.1 70.1 14 -6.8 19.7
17:55 1022 30.18 851 25.13 21.2 70.2 17 -4.9 23.2
18:00 1022 30.18 851 25.13 21.4 70.4 17 -4.3 24.2
18:05 1022 30.18 851 25.13 21.5 70.7 16 -5.6 21.9
18:10 1022 30.18 851 25.13 21.5 70.6 15 -6 21.3
18:15 1022 30.18 851 25.13 21 69.8 16 -6 21.2
18:20 1022 30.18 851 25.13 20.7 69.2 18 -4.5 23.8
18:25 1022 30.18 851 25.13 20.5 68.9 17 -5.4 22.2
18:30 1022 30.18 851 25.13 20.5 68.9 19 -3.5 25.8
18:35 1022 30.18 851 25.13 20.4 68.7 19 -3.9 25
18:40 1022 30.18 851 25.13 20.1 68.2 21 -2.9 26.9
18:45 1022 30.18 851 25.13 19.8 67.6 24 -1.1 30.1
18:50 1022 30.18 851 25.13 19.2 66.6 25 -0.9 30.4
18:55 1022 30.18 851 25.13 18.9 66 27 -0.3 31.4
19:00 1022 30.18 851 25.13 18.4 65.1 29 0.3 32.6
19:05 1022 30.18 851 25.13 18 64.5 31 0.6 33.1
19:10 1022 30.18 851 25.13 17.4 63.4 39 3.3 37.9
19:15 1022 30.18 851 25.13 16.5 61.7 36 1.4 34.6
19:20 1022 30.18 851 25.13 16.2 61.1 35 0.8 33.5
19:25 1022 30.18 851 25.13 15.8 60.5 36 1 33.8
19:30 1022 30.18 851 25.13 14.9 58.9 43 2.5 36.6
19:35 1022 30.18 851 25.13 14 57.3 34 -1.4 29.6
19:40 1022 30.18 851 25.13 14.6 58.2 36 -0.2 31.6
19:45 1022 30.18 851 25.13 14.6 58.2 38 0.7 33.2
19:50 1022 30.18 851 25.13 13.9 57.1 30 -3.5 25.7
19:55 1022 30.18 851 25.13 14.5 58.1 31 -2.3 27.9
20:00 1022 30.18 851 25.13 14.1 57.4 35 -1 30.1
20:05 1022 30.18 851 25.13 13.6 56.4 34 -1.8 28.8
20:10 1022 30.18 851 25.13 13.6 56.4 32 -2.8 26.9
20:15 1022 30.18 851 25.13 14 57.1 32 -2.3 27.8
20:20 1022 30.18 851 25.13 14.4 57.8 32 -2.2 28.1
20:25 1022 30.18 851 25.13 14.3 57.8 31 -2.4 27.7
20:30 1022 30.18 851 25.13 14.8 58.6 30 -2.7 27.1
20:35 1022 30.18 851 25.13 15.3 59.5 29 -2.6 27.3
20:40 1022 30.18 851 25.13 15.4 59.7 29 -2.3 27.8
20:45 1022 30.18 851 25.13 15.4 59.6 30 -2.1 28.3
20:50 1022 30.18 851 25.13 15.4 59.8 30 -1.8 28.7
20:55 1022 30.18 851 25.13 15.6 60.1 31 -1.5 29.4
21:00 1022 30.18 851 25.13 15.6 60.1 31 -1.2 29.9
21:05 1022 30.18 851 25.13 15.7 60.2 32 -1 30.1
21:10 1022 30.18 851 25.13 15.8 60.5 32 -1 30.3
21:15 1022 30.18 851 25.13 15.9 60.6 32 -0.8 30.5
21:20 1022 30.18 851 25.13 15.9 60.5 32 -0.6 30.9
21:25 1022 30.18 851 25.13 15.8 60.5 32 -0.7 30.8
21:30 1022 30.18 851 25.13 15.7 60.2 33 -0.6 30.9
21:35 1022 30.18 851 25.13 15.6 60.2 33 -0.5 31
21:40 1022 30.18 851 25.13 15.5 59.9 34 -0.3 31.5
21:45 1022 30.18 851 25.13 15.4 59.7 34 -0.4 31.3
21:50 1022 30.18 851 25.13 15.4 59.8 34 -0.3 31.5
21:55 1022 30.18 851 25.13 15.4 59.6 34 -0.3 31.5
22:00 1022 30.18 851 25.13 15.3 59.5 35 0 32
22:05 1022 30.18 851 25.13 15.1 59.3 36 0.1 32.2
22:10 1022 30.18 851 25.13 14.9 58.9 36 0.2 32.4
22:15 1022 30.18 851 25.13 14.8 58.6 37 0.2 32.4
22:20 1022 30.18 851 25.13 14.8 58.7 36 0.2 32.3
22:25 1022 30.18 851 25.13 14.8 58.6 36 0.1 32.2
22:30 1022 30.18 851 25.13 14.7 58.5 36 0.1 32.2
22:35 1022 30.18 851 25.13 14.7 58.5 37 0.2 32.3
22:40 1022 30.18 851 25.13 14.6 58.3 37 0.3 32.5
22:45 1022 30.18 851 25.13 14.6 58.3 37 0.3 32.6
22:50 1022 30.18 851 25.13 14.6 58.3 38 0.4 32.7
22:55 1022 30.18 851 25.13 14.6 58.2 38 0.5 32.9
23:00 1022 30.18 851 25.13 14.5 58.2 38 0.5 33
23:05 1022 30.18 851 25.13 14.6 58.2 39 0.8 33.5
23:10 1022 30.18 851 25.13 14.4 57.9 39 0.8 33.5
23:15 1022 30.18 851 25.13 14.5 58 40 1 33.8
23:20 1022 30.18 851 25.13 14.4 58 40 1.1 34
23:25 1022 30.18 851 25.13 14.4 58 40 1.1 34
23:30 1022 30.18 851 25.13 14.3 57.7 41 1.3 34.4
23:35 1022 30.18 851 25.13 14.1 57.3 42 1.4 34.5
23:40 1022 30.18 851 25.13 13.9 56.9 43 1.6 34.8
23:45 1022 30.18 851 25.13 13.6 56.5 43 1.4 34.5
23:50 1022 30.18 851 25.13 13.3 56 44 1.3 34.4
23:55 1022 30.18 851 25.13 13.2 55.7 44 1.2 34.1
24:00 1022 30.18 851 25.13 13.1 55.6 44 1.3 34.4